createdAt,value
2018-09-30T00:00:30.695Z,69.12
2018-09-30T00:02:59.314Z,69.45
2018-09-30T00:05:27.380Z,69.88
2018-09-30T00:07:55.381Z,69.69
2018-09-30T00:10:23.434Z,68.92
2018-09-30T00:12:52.541Z,68.69
2018-09-30T00:15:20.566Z,68.73
2018-09-30T00:17:48.649Z,69.04
2018-09-30T00:20:16.658Z,69.23
2018-09-30T00:22:44.670Z,69.54
2018-09-30T00:25:18.214Z,68.73
2018-09-30T00:27:53.185Z,69.65
2018-09-30T00:30:21.325Z,69.27
2018-09-30T00:32:49.369Z,70.29
2018-09-30T00:35:17.382Z,70.34
2018-09-30T00:37:45.407Z,70.13
2018-09-30T00:40:13.489Z,70.19
2018-09-30T00:42:41.514Z,69.64
2018-09-30T00:45:09.662Z,69.47
2018-09-30T00:47:37.666Z,70.21
2018-09-30T00:50:05.966Z,71.65
2018-09-30T00:52:34.024Z,71.56
2018-09-30T00:55:02.044Z,72.83
2018-09-30T00:57:30.077Z,72.02
2018-09-30T00:59:58.145Z,72.04
2018-09-30T01:02:26.159Z,72.27
2018-09-30T01:04:54.185Z,72.24
2018-09-30T01:07:22.238Z,71.75
2018-09-30T01:09:56.742Z,72.12
2018-09-30T01:12:24.768Z,71.29
2018-09-30T01:14:52.818Z,70.96
2018-09-30T01:17:20.823Z,70.95
2018-09-30T01:19:48.866Z,71.72
2018-09-30T01:22:17.881Z,71.06
2018-09-30T01:24:45.913Z,71.04
2018-09-30T01:27:13.958Z,70.21
2018-09-30T01:29:42.041Z,71.54
2018-09-30T01:32:10.061Z,71.55
2018-09-30T01:34:38.068Z,70.90
2018-09-30T01:37:06.081Z,72.17
2018-09-30T01:39:34.114Z,71.43
2018-09-30T01:42:02.181Z,71.49
2018-09-30T01:44:30.193Z,71.75
2018-09-30T01:46:58.217Z,71.03
2018-09-30T01:49:26.302Z,71.36
2018-09-30T01:52:05.918Z,70.96
2018-09-30T01:54:33.968Z,70.57
2018-09-30T01:57:02.124Z,71.21
2018-09-30T01:59:30.292Z,70.33
2018-09-30T02:01:58.542Z,70.20
2018-09-30T02:04:26.559Z,69.51
2018-09-30T02:06:54.610Z,70.08
2018-09-30T02:09:22.635Z,70.35
2018-09-30T02:11:50.683Z,70.07
2018-09-30T02:14:18.711Z,69.47
2018-09-30T02:16:46.733Z,69.50
2018-09-30T02:19:14.742Z,70.14
2018-09-30T02:21:42.844Z,69.57
2018-09-30T02:24:10.866Z,70.08
2018-09-30T02:26:38.929Z,69.89
2018-09-30T02:29:07.106Z,70.09
2018-09-30T02:31:35.151Z,69.74
2018-09-30T02:34:03.210Z,69.68
2018-09-30T02:36:31.283Z,70.45
2018-09-30T02:38:59.296Z,69.77
2018-09-30T02:41:27.335Z,69.69
2018-09-30T02:43:55.382Z,70.41
2018-09-30T02:46:23.430Z,69.66
2018-09-30T02:48:51.460Z,69.53
2018-09-30T02:51:19.483Z,70.05
2018-09-30T02:53:47.497Z,70.30
2018-09-30T02:56:15.538Z,69.83
2018-09-30T02:58:43.563Z,70.29
2018-09-30T03:01:11.571Z,69.88
2018-09-30T03:03:39.621Z,69.68
2018-09-30T03:06:12.290Z,69.17
2018-09-30T03:08:45.753Z,69.46
2018-09-30T03:11:13.765Z,68.83
2018-09-30T03:13:41.878Z,69.03
2018-09-30T03:16:09.906Z,69.67
2018-09-30T03:18:37.966Z,69.41
2018-09-30T03:21:05.969Z,70.03
2018-09-30T03:23:33.991Z,69.97
2018-09-30T03:26:02.042Z,70.19
2018-09-30T03:28:30.081Z,70.23
2018-09-30T03:30:58.158Z,70.37
2018-09-30T03:33:26.204Z,70.33
2018-09-30T03:35:54.262Z,71.32
2018-09-30T03:38:22.328Z,70.84
2018-09-30T03:40:50.411Z,70.31
2018-09-30T03:43:18.484Z,70.44
2018-09-30T03:45:46.553Z,70.06
2018-09-30T03:48:14.597Z,70.63
2018-09-30T03:50:42.642Z,70.87
2018-09-30T03:53:10.752Z,71.52
2018-09-30T03:55:38.907Z,72.20
2018-09-30T03:58:06.922Z,73.40
2018-09-30T04:00:34.958Z,73.05
2018-09-30T04:03:02.976Z,73.46
2018-09-30T04:05:31.016Z,73.05
2018-09-30T04:08:00.132Z,73.24
2018-09-30T04:10:28.149Z,74.08
2018-09-30T04:12:56.351Z,73.39
2018-09-30T04:15:24.436Z,72.80
2018-09-30T04:17:52.492Z,72.86
2018-09-30T04:20:20.554Z,72.51
2018-09-30T04:22:48.623Z,72.34
2018-09-30T04:25:16.694Z,71.84
2018-09-30T04:27:44.739Z,71.91
2018-09-30T04:30:12.834Z,71.37
2018-09-30T04:32:40.939Z,72.40
2018-09-30T04:35:08.981Z,72.88
2018-09-30T04:37:37.005Z,73.45
2018-09-30T04:40:05.051Z,73.30
2018-09-30T04:42:33.098Z,73.32
2018-09-30T04:45:01.141Z,73.08
2018-09-30T04:47:29.758Z,72.36
2018-09-30T04:49:57.847Z,72.13
2018-09-30T04:52:25.833Z,72.34
2018-09-30T04:54:53.845Z,71.23
2018-09-30T04:57:21.853Z,70.98
2018-09-30T04:59:49.923Z,71.61
2018-09-30T05:02:17.971Z,71.52
2018-09-30T05:04:45.994Z,71.33
2018-09-30T05:07:14.077Z,71.66
2018-09-30T05:09:42.102Z,71.04
2018-09-30T05:12:10.137Z,70.72
2018-09-30T05:14:38.276Z,70.72
2018-09-30T05:17:06.324Z,70.56
2018-09-30T05:19:34.373Z,71.05
2018-09-30T05:22:02.415Z,70.76
2018-09-30T05:24:30.443Z,71.14
2018-09-30T05:26:58.458Z,70.93
2018-09-30T05:29:26.462Z,71.76
2018-09-30T05:31:54.546Z,71.20
2018-09-30T05:34:22.605Z,71.25
2018-09-30T05:36:50.646Z,71.13
2018-09-30T05:39:18.686Z,72.40
2018-09-30T05:41:46.743Z,71.84
2018-09-30T05:44:14.766Z,71.51
2018-09-30T05:46:42.822Z,71.34
2018-09-30T05:49:10.969Z,71.15
2018-09-30T05:51:38.970Z,71.40
2018-09-30T05:54:06.995Z,71.51
2018-09-30T05:56:35.207Z,71.63
2018-09-30T05:59:03.314Z,72.87
2018-09-30T06:01:31.370Z,70.76
2018-09-30T06:03:59.484Z,66.47
2018-09-30T06:06:27.469Z,62.04
2018-09-30T06:08:55.593Z,53.39
2018-09-30T06:11:23.611Z,48.62
2018-09-30T06:13:51.659Z,45.15
2018-09-30T06:16:19.713Z,42.61
2018-09-30T06:18:47.750Z,40.31
2018-09-30T06:21:15.831Z,39.79
2018-09-30T06:23:43.866Z,39.32
2018-09-30T06:26:11.912Z,38.42
2018-09-30T06:28:39.942Z,37.97
2018-09-30T06:31:08.033Z,36.75
2018-09-30T06:33:36.087Z,34.04
2018-09-30T06:36:04.121Z,33.83
2018-09-30T06:38:32.171Z,32.49
2018-09-30T06:41:00.218Z,30.70
2018-09-30T06:43:28.257Z,29.21
2018-09-30T06:45:56.330Z,27.76
2018-09-30T06:48:24.373Z,26.16
2018-09-30T06:50:52.479Z,24.89
2018-09-30T06:53:20.525Z,24.68
2018-09-30T06:55:48.655Z,24.71
2018-09-30T06:58:16.815Z,23.28
2018-09-30T07:00:44.817Z,24.14
2018-09-30T07:03:12.902Z,24.81
2018-09-30T07:05:40.985Z,24.41
2018-09-30T07:08:09.040Z,24.67
2018-09-30T07:10:37.078Z,24.75
2018-09-30T07:13:05.200Z,23.60
2018-09-30T07:15:33.216Z,22.82
2018-09-30T07:18:01.386Z,22.40
2018-09-30T07:20:29.402Z,22.45
2018-09-30T07:22:57.496Z,20.51
2018-09-30T07:25:25.563Z,20.73
2018-09-30T07:27:53.628Z,20.01
2018-09-30T07:30:21.751Z,19.85
2018-09-30T07:32:49.811Z,18.53
2018-09-30T07:35:18.358Z,18.85
2018-09-30T07:37:46.431Z,19.70
2018-09-30T07:40:14.446Z,18.38
2018-09-30T07:42:42.520Z,19.62
2018-09-30T07:45:10.525Z,18.20
2018-09-30T07:47:38.646Z,18.39
2018-09-30T07:50:06.774Z,19.09
2018-09-30T07:52:35.011Z,20.09
2018-09-30T07:55:03.113Z,19.10
2018-09-30T07:57:33.468Z,18.48
2018-09-30T08:00:01.735Z,19.63
2018-09-30T08:02:29.902Z,18.83
2018-09-30T08:04:59.189Z,18.18
2018-09-30T08:07:27.399Z,17.74
2018-09-30T08:09:55.721Z,18.07
2018-09-30T08:12:23.998Z,18.62
2018-09-30T08:14:52.123Z,19.71
2018-09-30T08:17:20.353Z,18.86
2018-09-30T08:19:48.593Z,18.06
2018-09-30T08:22:17.849Z,19.18
2018-09-30T08:24:45.879Z,17.76
2018-09-30T08:27:14.044Z,19.20
2018-09-30T08:29:42.371Z,18.62
2018-09-30T08:32:10.481Z,18.76
2018-09-30T08:34:38.940Z,17.68
2018-09-30T08:37:07.250Z,16.90
2018-09-30T08:39:35.474Z,17.77
2018-09-30T08:42:03.817Z,18.21
2018-09-30T08:44:31.956Z,18.83
2018-09-30T08:47:01.062Z,19.39
2018-09-30T08:49:29.142Z,18.29
2018-09-30T08:51:57.258Z,19.42
2018-09-30T08:54:25.634Z,18.84
2018-09-30T08:56:53.710Z,19.82
2018-09-30T08:59:21.809Z,19.08
2018-09-30T09:01:49.814Z,20.84
2018-09-30T09:04:17.981Z,20.06
2018-09-30T09:06:46.046Z,21.68
2018-09-30T09:09:14.141Z,20.95
2018-09-30T09:11:42.158Z,21.18
2018-09-30T09:14:10.289Z,20.23
2018-09-30T09:16:38.348Z,20.64
2018-09-30T09:19:06.442Z,20.00
2018-09-30T09:21:34.491Z,20.31
2018-09-30T09:24:02.548Z,21.20
2018-09-30T09:29:08.333Z,19.70
2018-09-30T09:31:36.521Z,20.62
2018-09-30T09:34:04.562Z,20.21
2018-09-30T09:36:34.509Z,20.84
2018-09-30T09:39:06.604Z,22.57
2018-09-30T09:41:34.750Z,22.88
2018-09-30T09:44:02.912Z,23.27
2018-09-30T09:46:30.942Z,23.07
2018-09-30T09:48:59.038Z,23.24
2018-09-30T09:51:27.099Z,23.79
2018-09-30T09:53:55.202Z,25.41
2018-09-30T09:56:23.274Z,25.54
2018-09-30T09:58:51.384Z,25.73
2018-09-30T10:01:19.381Z,26.13
2018-09-30T10:03:47.414Z,28.33
2018-09-30T10:06:15.477Z,29.00
2018-09-30T10:08:43.543Z,30.19
2018-09-30T10:11:11.597Z,28.85
2018-09-30T10:13:39.738Z,29.22
2018-09-30T10:16:07.819Z,30.67
2018-09-30T10:18:35.902Z,29.96
2018-09-30T10:21:03.979Z,30.48
2018-09-30T10:23:32.002Z,31.45
2018-09-30T10:26:00.102Z,31.37
2018-09-30T10:28:28.182Z,32.05
2018-09-30T10:30:58.013Z,32.97
2018-09-30T10:33:26.326Z,33.39
2018-09-30T10:35:55.451Z,33.19
2018-09-30T10:38:23.643Z,33.33
2018-09-30T10:40:52.858Z,32.72
2018-09-30T10:43:20.901Z,33.82
2018-09-30T10:45:49.103Z,33.96
2018-09-30T10:48:17.166Z,33.73
2018-09-30T10:50:45.197Z,33.84
2018-09-30T10:53:13.295Z,34.10
2018-09-30T10:55:41.414Z,33.06
2018-09-30T10:58:09.602Z,34.69
2018-09-30T11:00:37.698Z,34.87
2018-09-30T11:05:40.197Z,33.69
2018-09-30T11:08:08.282Z,34.57
2018-09-30T11:10:36.322Z,34.63
2018-09-30T11:13:04.446Z,32.31
2018-09-30T11:15:32.529Z,33.72
2018-09-30T11:18:00.588Z,33.79
2018-09-30T11:20:28.694Z,32.71
2018-09-30T11:22:56.765Z,33.49
2018-09-30T11:25:24.877Z,32.57
2018-09-30T11:27:52.990Z,36.61
2018-09-30T11:30:21.273Z,34.94
2018-09-30T11:32:49.575Z,33.41
2018-09-30T11:35:17.721Z,34.58
2018-09-30T11:37:45.989Z,33.54
2018-09-30T11:40:14.073Z,33.89
2018-09-30T11:42:42.546Z,32.90
2018-09-30T11:45:10.662Z,35.22
2018-09-30T11:47:38.906Z,33.73
2018-09-30T11:50:06.933Z,33.41
2018-09-30T11:52:35.045Z,33.51
2018-09-30T11:55:03.251Z,31.94
2018-09-30T11:57:31.590Z,34.34
2018-09-30T11:59:59.857Z,33.31
2018-09-30T12:02:27.914Z,32.96
2018-09-30T12:04:56.000Z,31.29
2018-09-30T12:07:24.150Z,30.72
2018-09-30T12:09:52.189Z,29.78
2018-09-30T12:12:21.481Z,32.47
2018-09-30T12:14:49.577Z,32.42
2018-09-30T12:17:17.855Z,31.93
2018-09-30T12:19:46.046Z,31.62
2018-09-30T12:22:14.118Z,33.73
2018-09-30T12:24:42.295Z,31.05
2018-09-30T12:27:10.390Z,32.73
2018-09-30T12:29:38.518Z,31.41
2018-09-30T12:32:06.998Z,31.04
2018-09-30T12:34:35.216Z,30.18
2018-09-30T12:37:03.333Z,30.92
2018-09-30T12:39:31.474Z,30.12
2018-09-30T12:41:59.723Z,29.80
2018-09-30T12:44:27.993Z,31.12
2018-09-30T12:46:56.227Z,30.42
2018-09-30T12:49:24.293Z,31.23
2018-09-30T12:51:52.649Z,30.99
2018-09-30T12:54:20.730Z,32.05
2018-09-30T12:56:48.784Z,31.45
2018-09-30T12:59:16.818Z,31.59
2018-09-30T13:01:44.941Z,31.43
2018-09-30T13:04:13.058Z,30.27
2018-09-30T13:06:41.174Z,30.84
2018-09-30T13:09:10.091Z,31.88
2018-09-30T13:11:38.397Z,30.28
2018-09-30T13:14:06.919Z,31.21
2018-09-30T13:16:35.113Z,29.93
2018-09-30T13:19:03.177Z,32.58
2018-09-30T13:21:31.302Z,31.00
2018-09-30T13:23:59.446Z,30.56
2018-09-30T13:26:27.498Z,31.33
2018-09-30T13:28:55.599Z,32.48
2018-09-30T13:31:24.089Z,31.15
2018-09-30T13:33:52.165Z,31.93
2018-09-30T13:36:20.326Z,31.23
2018-09-30T13:38:48.445Z,30.63
2018-09-30T13:41:16.470Z,30.69
2018-09-30T13:43:44.566Z,31.91
2018-09-30T13:46:12.682Z,32.85
2018-09-30T13:48:40.786Z,30.68
2018-09-30T13:51:08.894Z,32.00
2018-09-30T13:53:37.106Z,32.60
2018-09-30T13:56:05.134Z,31.95
2018-09-30T13:58:33.166Z,33.06
2018-09-30T14:01:01.364Z,33.03
2018-09-30T14:03:29.509Z,32.52
2018-09-30T14:05:57.619Z,33.93
2018-09-30T14:08:25.675Z,33.83
2018-09-30T14:10:53.714Z,32.83
2018-09-30T14:13:21.784Z,33.02
2018-09-30T14:15:49.981Z,32.70
2018-09-30T14:18:18.102Z,32.23
2018-09-30T14:20:46.196Z,32.97
2018-09-30T14:23:14.238Z,32.79
2018-09-30T14:25:43.363Z,33.08
2018-09-30T14:28:11.457Z,33.65
2018-09-30T14:30:39.613Z,34.07
2018-09-30T14:33:07.878Z,33.09
2018-09-30T14:35:35.942Z,33.66
2018-09-30T14:38:04.012Z,35.81
2018-09-30T14:40:32.057Z,34.46
2018-09-30T14:43:00.140Z,35.26
2018-09-30T14:45:28.169Z,34.35
2018-09-30T14:47:56.298Z,34.17
2018-09-30T14:50:24.454Z,34.43
2018-09-30T14:52:52.851Z,34.02
2018-09-30T14:55:20.926Z,35.17
2018-09-30T14:57:48.959Z,34.80
2018-09-30T15:00:16.981Z,34.89
2018-09-30T15:02:45.062Z,34.47
2018-09-30T15:05:13.083Z,35.49
2018-09-30T15:07:41.139Z,34.81
2018-09-30T15:10:09.155Z,35.45
2018-09-30T15:12:37.775Z,34.77
2018-09-30T15:15:07.467Z,35.44
2018-09-30T15:17:35.590Z,35.63
2018-09-30T15:20:03.610Z,35.48
2018-09-30T15:22:31.646Z,37.19
2018-09-30T15:25:00.147Z,36.26
2018-09-30T15:27:28.204Z,36.24
2018-09-30T15:29:56.205Z,35.33
2018-09-30T15:32:24.238Z,35.26
2018-09-30T15:34:52.255Z,36.48
2018-09-30T15:37:20.409Z,36.50
2018-09-30T15:39:48.449Z,36.21
2018-09-30T15:42:16.539Z,37.17
2018-09-30T15:44:44.548Z,37.00
2018-09-30T15:47:12.573Z,37.53
2018-09-30T15:49:40.680Z,38.88
2018-09-30T15:52:08.705Z,38.24
2018-09-30T15:54:36.784Z,38.79
2018-09-30T15:57:05.910Z,39.10
2018-09-30T15:59:33.986Z,38.66
2018-09-30T16:02:02.007Z,38.11
2018-09-30T16:04:30.064Z,40.06
2018-09-30T16:06:58.195Z,41.55
2018-09-30T16:09:26.271Z,41.50
2018-09-30T16:11:54.331Z,41.82
2018-09-30T16:14:22.540Z,41.33
2018-09-30T16:16:50.614Z,40.57
2018-09-30T16:19:18.735Z,42.07
2018-09-30T16:21:46.832Z,40.40
2018-09-30T16:24:14.861Z,41.32
2018-09-30T16:26:42.942Z,41.91
2018-09-30T16:29:10.992Z,39.51
2018-09-30T16:31:39.054Z,40.67
2018-09-30T16:34:07.103Z,40.72
2018-09-30T16:36:35.184Z,41.60
2018-09-30T16:39:03.462Z,41.48
2018-09-30T16:41:31.534Z,40.95
2018-09-30T16:43:59.552Z,40.96
2018-09-30T16:46:27.617Z,41.10
2018-09-30T16:48:55.691Z,40.18
2018-09-30T16:51:23.765Z,41.33
2018-09-30T16:53:51.809Z,40.79
2018-09-30T16:56:19.858Z,41.96
2018-09-30T16:58:47.923Z,42.38
2018-09-30T17:01:16.042Z,42.52
2018-09-30T17:03:44.194Z,42.97
2018-09-30T17:06:12.269Z,44.69
2018-09-30T17:08:40.312Z,45.99
2018-09-30T17:11:08.384Z,45.73
2018-09-30T17:13:36.545Z,45.19
2018-09-30T17:16:05.696Z,45.55
2018-09-30T17:18:33.802Z,46.64
2018-09-30T17:21:01.872Z,46.67
2018-09-30T17:23:30.309Z,47.06
2018-09-30T17:25:58.311Z,46.76
2018-09-30T17:28:26.713Z,46.75
2018-09-30T17:30:54.897Z,47.72
2018-09-30T17:33:23.029Z,46.79
2018-09-30T17:35:51.092Z,47.83
2018-09-30T17:38:19.163Z,48.27
2018-09-30T17:40:47.247Z,46.74
2018-09-30T17:43:15.330Z,46.04
2018-09-30T17:45:43.392Z,47.76
2018-09-30T17:48:11.778Z,47.21
2018-09-30T17:50:39.931Z,48.64
2018-09-30T17:53:08.074Z,48.75
2018-09-30T17:55:36.122Z,48.89
2018-09-30T17:58:04.258Z,49.31
2018-09-30T18:00:32.310Z,48.30
2018-09-30T18:05:40.094Z,46.97
2018-09-30T18:08:08.177Z,47.16
2018-09-30T18:10:36.359Z,46.59
2018-09-30T18:13:04.519Z,46.50
2018-09-30T18:15:32.700Z,47.22
2018-09-30T18:18:00.739Z,46.56
2018-09-30T18:20:28.781Z,47.48
2018-09-30T18:22:57.298Z,47.51
2018-09-30T18:25:25.808Z,48.73
2018-09-30T18:27:53.917Z,50.46
2018-09-30T18:30:22.526Z,50.26
2018-09-30T18:32:50.553Z,50.95
2018-09-30T18:35:18.634Z,51.35
2018-09-30T18:37:46.750Z,51.47
2018-09-30T18:40:14.939Z,51.51
2018-09-30T18:42:44.034Z,51.71
2018-09-30T18:45:12.175Z,52.34
2018-09-30T18:47:40.272Z,53.23
2018-09-30T18:50:08.358Z,53.04
2018-09-30T18:52:36.436Z,53.05
2018-09-30T18:55:04.614Z,52.86
2018-09-30T18:57:32.821Z,53.65
2018-09-30T19:00:01.030Z,53.25
2018-09-30T19:02:29.102Z,53.75
2018-09-30T19:04:57.178Z,53.74
2018-09-30T19:07:25.296Z,54.71
2018-09-30T19:09:54.416Z,54.59
2018-09-30T19:12:22.598Z,53.99
2018-09-30T19:14:50.622Z,54.91
2018-09-30T19:17:18.707Z,53.58
2018-09-30T19:19:46.854Z,54.92
2018-09-30T19:22:14.983Z,54.58
2018-09-30T19:24:43.026Z,53.98
2018-09-30T19:27:11.065Z,55.21
2018-09-30T19:29:39.165Z,54.44
2018-09-30T19:32:07.238Z,54.38
2018-09-30T19:34:35.377Z,54.64
2018-09-30T19:37:03.414Z,54.93
2018-09-30T19:39:31.471Z,55.10
2018-09-30T19:41:59.490Z,54.85
2018-09-30T19:44:27.588Z,55.12
2018-09-30T19:46:55.685Z,56.05
2018-09-30T19:49:23.805Z,56.48
2018-09-30T19:51:51.937Z,55.48
2018-09-30T19:54:19.988Z,55.94
2018-09-30T19:56:48.266Z,56.64
2018-09-30T19:59:16.925Z,55.28
2018-09-30T20:01:45.019Z,54.83
2018-09-30T20:04:13.303Z,54.45
2018-09-30T20:06:41.412Z,54.19
2018-09-30T20:09:09.721Z,54.82
2018-09-30T20:11:38.175Z,54.38
2018-09-30T20:14:06.422Z,54.75
2018-09-30T20:16:34.496Z,55.41
2018-09-30T20:19:02.561Z,54.95
2018-09-30T20:21:30.666Z,54.43
2018-09-30T20:23:58.709Z,54.88
2018-09-30T20:26:27.049Z,54.03
2018-09-30T20:28:55.334Z,54.03
2018-09-30T20:31:24.101Z,54.41
2018-09-30T20:33:52.333Z,54.44
2018-09-30T20:36:20.763Z,53.95
2018-09-30T20:38:49.037Z,55.26
2018-09-30T20:41:17.294Z,54.34
2018-09-30T20:43:46.481Z,55.71
2018-09-30T20:46:15.977Z,56.77
2018-09-30T20:48:44.201Z,57.70
2018-09-30T20:51:13.197Z,58.36
2018-09-30T20:53:41.441Z,57.21
2018-09-30T20:56:09.787Z,56.60
2018-09-30T20:58:37.897Z,56.03
2018-09-30T21:01:06.062Z,56.19
2018-09-30T21:03:34.322Z,55.79
2018-09-30T21:06:08.782Z,56.91
2018-09-30T21:08:36.889Z,56.75
2018-09-30T21:11:04.969Z,58.08
2018-09-30T21:13:33.134Z,56.61
2018-09-30T21:16:01.731Z,56.31
2018-09-30T21:18:29.977Z,56.84
2018-09-30T21:20:58.465Z,57.29
2018-09-30T21:23:26.839Z,57.37
2018-09-30T21:25:55.186Z,56.86
2018-09-30T21:28:23.451Z,57.87
2018-09-30T21:30:52.125Z,58.15
2018-09-30T21:33:20.363Z,58.99
2018-09-30T21:35:48.822Z,59.44
2018-09-30T21:38:17.338Z,58.54
2018-09-30T21:40:45.806Z,58.38
2018-09-30T21:43:14.060Z,58.95
2018-09-30T21:45:42.475Z,59.31
2018-09-30T21:48:11.045Z,59.57
2018-09-30T21:50:39.326Z,58.93
2018-09-30T21:53:15.189Z,58.45
2018-09-30T21:55:43.372Z,58.27
2018-09-30T21:58:11.858Z,57.68
2018-09-30T22:00:42.174Z,57.96
2018-09-30T22:03:12.362Z,57.68
2018-09-30T22:05:40.649Z,57.71
2018-09-30T22:08:09.734Z,58.69
2018-09-30T22:10:38.677Z,57.72
2018-09-30T22:13:07.013Z,58.44
2018-09-30T22:15:35.331Z,59.28
2018-09-30T22:18:03.451Z,58.95
2018-09-30T22:20:32.484Z,60.59
2018-09-30T22:23:00.573Z,61.21
2018-09-30T22:25:28.663Z,60.39
2018-09-30T22:27:56.761Z,60.83
2018-09-30T22:30:24.781Z,61.40
2018-09-30T22:32:52.810Z,60.16
2018-09-30T22:35:20.915Z,61.07
2018-09-30T22:37:49.022Z,60.73
2018-09-30T22:40:17.095Z,60.77
2018-09-30T22:42:45.229Z,62.51
2018-09-30T22:45:13.326Z,61.86
2018-09-30T22:47:41.334Z,61.92
2018-09-30T22:50:09.398Z,61.00
2018-09-30T22:52:37.539Z,61.26
2018-09-30T22:55:05.862Z,61.46
2018-09-30T22:57:34.073Z,60.61
2018-09-30T23:00:02.138Z,60.77
2018-09-30T23:02:30.197Z,61.53
2018-09-30T23:04:58.275Z,61.28
2018-09-30T23:07:26.302Z,61.37
2018-09-30T23:09:54.441Z,60.94
2018-09-30T23:12:22.551Z,61.08
2018-09-30T23:14:50.594Z,60.42
2018-09-30T23:17:18.748Z,61.05
2018-09-30T23:19:46.835Z,60.82
2018-09-30T23:22:14.852Z,60.62
2018-09-30T23:24:42.952Z,60.52
2018-09-30T23:27:10.993Z,60.96
2018-09-30T23:29:39.021Z,60.35
2018-09-30T23:32:07.094Z,60.87
2018-09-30T23:34:35.126Z,61.49
2018-09-30T23:37:03.155Z,60.98
2018-09-30T23:39:31.189Z,61.51
2018-09-30T23:41:59.263Z,62.04
2018-09-30T23:44:27.291Z,61.18
2018-09-30T23:46:55.358Z,61.77
2018-09-30T23:49:23.401Z,61.10
2018-09-30T23:51:51.470Z,61.70
2018-09-30T23:54:19.501Z,61.83
2018-09-30T23:56:47.521Z,61.81
2018-09-30T23:59:15.550Z,61.74
